sensor_id;sensor_type;location;lat;lon;timestamp;pressure;altitude;pressure_sealevel;temperature;humidity
58662;BME280;44432;49.786;22.760;2024-03-22T00:00:10;99613.75;;;2.68;82.93
58662;BME280;44432;49.786;22.760;2024-03-22T00:03:01;99607.71;;;2.72;82.96
58662;BME280;44432;49.786;22.760;2024-03-22T00:05:31;99608.26;;;2.76;82.73
58662;BME280;44432;49.786;22.760;2024-03-22T00:08:01;99611.37;;;2.77;82.86
58662;BME280;44432;49.786;22.760;2024-03-22T00:10:32;99608.38;;;2.80;83.04
58662;BME280;44432;49.786;22.760;2024-03-22T00:13:02;99608.10;;;2.82;82.64
58662;BME280;44432;49.786;22.760;2024-03-22T00:15:32;99602.88;;;2.86;82.91
58662;BME280;44432;49.786;22.760;2024-03-22T00:18:03;99602.04;;;2.89;83.18
58662;BME280;44432;49.786;22.760;2024-03-22T00:20:33;99601.86;;;2.92;82.77
58662;BME280;44432;49.786;22.760;2024-03-22T00:23:04;99603.54;;;2.94;82.70
58662;BME280;44432;49.786;22.760;2024-03-22T00:25:34;99601.34;;;2.98;82.85
58662;BME280;44432;49.786;22.760;2024-03-22T00:28:05;99595.58;;;2.99;82.86
58662;BME280;44432;49.786;22.760;2024-03-22T00:30:35;99596.40;;;3.02;83.16
58662;BME280;44432;49.786;22.760;2024-03-22T00:33:05;99592.42;;;3.03;82.70
58662;BME280;44432;49.786;22.760;2024-03-22T00:35:36;99588.17;;;3.05;82.91
58662;BME280;44432;49.786;22.760;2024-03-22T00:38:06;99583.67;;;3.07;82.97
58662;BME280;44432;49.786;22.760;2024-03-22T00:40:36;99583.10;;;3.09;82.65
58662;BME280;44432;49.786;22.760;2024-03-22T00:43:07;99584.27;;;3.11;82.48
58662;BME280;44432;49.786;22.760;2024-03-22T00:45:37;99581.60;;;3.12;82.73
58662;BME280;44432;49.786;22.760;2024-03-22T00:48:08;99578.16;;;3.14;82.62
58662;BME280;44432;49.786;22.760;2024-03-22T00:50:39;99581.23;;;3.17;83.00
58662;BME280;44432;49.786;22.760;2024-03-22T00:53:10;99578.66;;;3.18;82.69
58662;BME280;44432;49.786;22.760;2024-03-22T00:55:40;99580.24;;;3.19;82.85
58662;BME280;44432;49.786;22.760;2024-03-22T00:58:11;99577.05;;;3.22;82.75
58662;BME280;44432;49.786;22.760;2024-03-22T01:00:41;99572.52;;;3.23;82.72
58662;BME280;44432;49.786;22.760;2024-03-22T01:03:11;99568.59;;;3.26;82.89
58662;BME280;44432;49.786;22.760;2024-03-22T01:05:42;99568.44;;;3.29;82.90
58662;BME280;44432;49.786;22.760;2024-03-22T01:08:13;99568.08;;;3.31;83.05
58662;BME280;44432;49.786;22.760;2024-03-22T01:10:44;99565.55;;;3.32;82.89
58662;BME280;44432;49.786;22.760;2024-03-22T01:13:14;99564.40;;;3.33;83.13
58662;BME280;44432;49.786;22.760;2024-03-22T01:15:44;99560.48;;;3.32;82.77
58662;BME280;44432;49.786;22.760;2024-03-22T01:18:15;99559.67;;;3.34;83.09
58662;BME280;44432;49.786;22.760;2024-03-22T01:20:45;99554.81;;;3.34;83.15
58662;BME280;44432;49.786;22.760;2024-03-22T01:23:16;99552.27;;;3.34;83.31
58662;BME280;44432;49.786;22.760;2024-03-22T01:25:47;99549.63;;;3.35;83.28
58662;BME280;44432;49.786;22.760;2024-03-22T01:28:17;99542.79;;;3.36;83.41
58662;BME280;44432;49.786;22.760;2024-03-22T01:30:48;99537.41;;;3.37;83.23
58662;BME280;44432;49.786;22.760;2024-03-22T01:33:18;99528.89;;;3.37;83.35
58662;BME280;44432;49.786;22.760;2024-03-22T01:35:48;99525.05;;;3.37;83.15
58662;BME280;44432;49.786;22.760;2024-03-22T01:38:18;99536.80;;;3.33;83.35
58662;BME280;44432;49.786;22.760;2024-03-22T01:40:48;99528.94;;;3.31;83.26
58662;BME280;44432;49.786;22.760;2024-03-22T01:43:19;99523.08;;;3.31;83.93
58662;BME280;44432;49.786;22.760;2024-03-22T01:45:49;99519.45;;;3.32;84.04
58662;BME280;44432;49.786;22.760;2024-03-22T01:48:20;99516.40;;;3.35;83.99
58662;BME280;44432;49.786;22.760;2024-03-22T01:50:51;99512.65;;;3.39;84.16
58662;BME280;44432;49.786;22.760;2024-03-22T01:53:22;99510.66;;;3.41;84.23
58662;BME280;44432;49.786;22.760;2024-03-22T01:55:52;99504.92;;;3.43;84.01
58662;BME280;44432;49.786;22.760;2024-03-22T01:58:23;99495.33;;;3.43;83.96
58662;BME280;44432;49.786;22.760;2024-03-22T02:00:53;99496.86;;;3.43;84.26
58662;BME280;44432;49.786;22.760;2024-03-22T02:03:23;99491.90;;;3.44;84.43
58662;BME280;44432;49.786;22.760;2024-03-22T02:05:54;99485.02;;;3.47;84.38
58662;BME280;44432;49.786;22.760;2024-03-22T02:08:24;99486.46;;;3.49;84.29
58662;BME280;44432;49.786;22.760;2024-03-22T02:10:54;99485.03;;;3.52;84.65
58662;BME280;44432;49.786;22.760;2024-03-22T02:13:25;99484.18;;;3.53;84.60
58662;BME280;44432;49.786;22.760;2024-03-22T02:15:55;99493.48;;;3.54;84.48
58662;BME280;44432;49.786;22.760;2024-03-22T02:18:26;99492.21;;;3.54;84.65
58662;BME280;44432;49.786;22.760;2024-03-22T02:20:57;99498.08;;;3.56;84.63
58662;BME280;44432;49.786;22.760;2024-03-22T02:23:33;99502.36;;;3.57;84.74
58662;BME280;44432;49.786;22.760;2024-03-22T02:26:04;99503.30;;;3.58;84.82
58662;BME280;44432;49.786;22.760;2024-03-22T02:28:36;99504.10;;;3.60;84.63
58662;BME280;44432;49.786;22.760;2024-03-22T02:31:06;99499.98;;;3.60;85.00
58662;BME280;44432;49.786;22.760;2024-03-22T02:33:36;99506.52;;;3.61;84.80
58662;BME280;44432;49.786;22.760;2024-03-22T02:36:08;99511.14;;;3.60;84.93
58662;BME280;44432;49.786;22.760;2024-03-22T02:38:38;99515.77;;;3.57;84.77
58662;BME280;44432;49.786;22.760;2024-03-22T02:41:09;99510.19;;;3.54;84.75
58662;BME280;44432;49.786;22.760;2024-03-22T02:43:39;99511.53;;;3.54;84.98
58662;BME280;44432;49.786;22.760;2024-03-22T02:46:09;99510.06;;;3.53;85.08
58662;BME280;44432;49.786;22.760;2024-03-22T02:48:39;99510.77;;;3.51;85.25
58662;BME280;44432;49.786;22.760;2024-03-22T02:51:09;99509.34;;;3.52;85.28
58662;BME280;44432;49.786;22.760;2024-03-22T02:53:40;99505.85;;;3.52;85.47
58662;BME280;44432;49.786;22.760;2024-03-22T02:56:10;99504.28;;;3.52;85.17
58662;BME280;44432;49.786;22.760;2024-03-22T02:58:41;99498.34;;;3.52;85.28
58662;BME280;44432;49.786;22.760;2024-03-22T03:01:11;99501.15;;;3.52;85.46
58662;BME280;44432;49.786;22.760;2024-03-22T03:03:41;99503.14;;;3.51;85.35
58662;BME280;44432;49.786;22.760;2024-03-22T03:06:12;99498.31;;;3.53;85.36
58662;BME280;44432;49.786;22.760;2024-03-22T03:08:42;99498.58;;;3.53;85.58
58662;BME280;44432;49.786;22.760;2024-03-22T03:11:12;99490.71;;;3.55;85.50
58662;BME280;44432;49.786;22.760;2024-03-22T03:13:43;99489.41;;;3.58;85.53
58662;BME280;44432;49.786;22.760;2024-03-22T03:16:13;99488.33;;;3.60;85.70
58662;BME280;44432;49.786;22.760;2024-03-22T03:18:43;99486.41;;;3.61;85.69
58662;BME280;44432;49.786;22.760;2024-03-22T03:21:13;99489.96;;;3.64;85.71
58662;BME280;44432;49.786;22.760;2024-03-22T03:23:44;99485.92;;;3.66;85.74
58662;BME280;44432;49.786;22.760;2024-03-22T03:26:14;99486.05;;;3.67;85.81
58662;BME280;44432;49.786;22.760;2024-03-22T03:28:44;99485.86;;;3.69;85.77
58662;BME280;44432;49.786;22.760;2024-03-22T03:31:14;99489.58;;;3.71;85.63
58662;BME280;44432;49.786;22.760;2024-03-22T03:33:45;99487.23;;;3.72;85.57
58662;BME280;44432;49.786;22.760;2024-03-22T03:36:15;99490.77;;;3.73;85.45
58662;BME280;44432;49.786;22.760;2024-03-22T03:38:45;99493.42;;;3.73;85.43
58662;BME280;44432;49.786;22.760;2024-03-22T03:41:15;99492.45;;;3.72;85.63
58662;BME280;44432;49.786;22.760;2024-03-22T03:43:46;99491.34;;;3.71;85.71
58662;BME280;44432;49.786;22.760;2024-03-22T03:46:16;99489.77;;;3.71;85.71
58662;BME280;44432;49.786;22.760;2024-03-22T03:48:47;99494.21;;;3.70;85.82
58662;BME280;44432;49.786;22.760;2024-03-22T03:51:17;99490.39;;;3.70;85.92
58662;BME280;44432;49.786;22.760;2024-03-22T03:53:47;99497.44;;;3.69;85.72
58662;BME280;44432;49.786;22.760;2024-03-22T03:56:18;99496.27;;;3.67;85.79
58662;BME280;44432;49.786;22.760;2024-03-22T03:58:48;99492.77;;;3.67;85.86
58662;BME280;44432;49.786;22.760;2024-03-22T04:01:18;99491.58;;;3.69;86.17
58662;BME280;44432;49.786;22.760;2024-03-22T04:03:49;99480.66;;;3.70;86.37
58662;BME280;44432;49.786;22.760;2024-03-22T04:06:19;99473.85;;;3.72;86.22
58662;BME280;44432;49.786;22.760;2024-03-22T04:08:49;99469.90;;;3.73;86.21
58662;BME280;44432;49.786;22.760;2024-03-22T04:11:20;99466.02;;;3.73;86.42
58662;BME280;44432;49.786;22.760;2024-03-22T04:13:50;99463.50;;;3.73;86.27
58662;BME280;44432;49.786;22.760;2024-03-22T04:16:20;99457.63;;;3.74;86.55
58662;BME280;44432;49.786;22.760;2024-03-22T04:18:50;99454.95;;;3.76;86.61
58662;BME280;44432;49.786;22.760;2024-03-22T04:21:21;99452.70;;;3.77;86.70
58662;BME280;44432;49.786;22.760;2024-03-22T04:23:51;99456.77;;;3.78;86.38
58662;BME280;44432;49.786;22.760;2024-03-22T04:26:21;99464.93;;;3.75;86.46
58662;BME280;44432;49.786;22.760;2024-03-22T04:28:52;99464.41;;;3.75;86.77
58662;BME280;44432;49.786;22.760;2024-03-22T04:31:22;99464.84;;;3.78;86.95
58662;BME280;44432;49.786;22.760;2024-03-22T04:33:52;99465.16;;;3.81;87.01
58662;BME280;44432;49.786;22.760;2024-03-22T04:36:22;99464.84;;;3.86;87.40
58662;BME280;44432;49.786;22.760;2024-03-22T04:38:53;99465.13;;;3.89;87.31
58662;BME280;44432;49.786;22.760;2024-03-22T04:41:23;99466.03;;;3.92;87.24
58662;BME280;44432;49.786;22.760;2024-03-22T04:43:53;99469.30;;;3.95;87.02
58662;BME280;44432;49.786;22.760;2024-03-22T04:46:24;99462.05;;;3.95;87.16
58662;BME280;44432;49.786;22.760;2024-03-22T04:48:54;99461.03;;;3.99;87.22
58662;BME280;44432;49.786;22.760;2024-03-22T04:51:24;99464.30;;;3.99;86.86
58662;BME280;44432;49.786;22.760;2024-03-22T04:53:54;99446.56;;;3.99;86.89
58662;BME280;44432;49.786;22.760;2024-03-22T04:56:25;99446.40;;;4.00;87.16
58662;BME280;44432;49.786;22.760;2024-03-22T04:58:55;99455.90;;;4.03;86.89
58662;BME280;44432;49.786;22.760;2024-03-22T05:01:25;99455.24;;;4.02;86.98
58662;BME280;44432;49.786;22.760;2024-03-22T05:03:55;99453.45;;;4.04;87.04
58662;BME280;44432;49.786;22.760;2024-03-22T05:06:26;99459.65;;;4.07;87.03
58662;BME280;44432;49.786;22.760;2024-03-22T05:08:56;99461.64;;;4.09;87.28
58662;BME280;44432;49.786;22.760;2024-03-22T05:11:26;99459.15;;;4.12;87.31
58662;BME280;44432;49.786;22.760;2024-03-22T05:13:57;99457.04;;;4.16;87.48
58662;BME280;44432;49.786;22.760;2024-03-22T05:16:27;99457.73;;;4.19;87.52
58662;BME280;44432;49.786;22.760;2024-03-22T05:18:57;99462.36;;;4.21;87.54
58662;BME280;44432;49.786;22.760;2024-03-22T05:21:27;99457.91;;;4.23;87.79
58662;BME280;44432;49.786;22.760;2024-03-22T05:23:58;99454.90;;;4.25;87.61
58662;BME280;44432;49.786;22.760;2024-03-22T05:26:28;99454.90;;;4.27;87.59
58662;BME280;44432;49.786;22.760;2024-03-22T05:28:59;99457.90;;;4.28;87.55
58662;BME280;44432;49.786;22.760;2024-03-22T05:31:30;99459.10;;;4.28;87.55
58662;BME280;44432;49.786;22.760;2024-03-22T05:34:00;99458.75;;;4.30;87.64
58662;BME280;44432;49.786;22.760;2024-03-22T05:36:30;99464.61;;;4.36;87.77
58662;BME280;44432;49.786;22.760;2024-03-22T05:39:01;99470.11;;;4.44;87.95
58662;BME280;44432;49.786;22.760;2024-03-22T05:41:31;99473.02;;;4.52;87.98
58662;BME280;44432;49.786;22.760;2024-03-22T05:44:01;99475.93;;;4.61;87.89
58662;BME280;44432;49.786;22.760;2024-03-22T05:46:32;99474.05;;;4.70;88.02
58662;BME280;44432;49.786;22.760;2024-03-22T05:49:02;99480.38;;;4.79;88.07
58662;BME280;44432;49.786;22.760;2024-03-22T05:51:32;99483.61;;;4.87;87.85
58662;BME280;44432;49.786;22.760;2024-03-22T05:54:03;99487.37;;;4.95;87.76
58662;BME280;44432;49.786;22.760;2024-03-22T05:56:33;99486.49;;;5.01;87.72
58662;BME280;44432;49.786;22.760;2024-03-22T05:59:04;99494.94;;;5.05;87.79
58662;BME280;44432;49.786;22.760;2024-03-22T06:01:34;99497.11;;;5.07;87.47
58662;BME280;44432;49.786;22.760;2024-03-22T06:04:05;99501.61;;;5.11;87.65
58662;BME280;44432;49.786;22.760;2024-03-22T06:06:35;99501.18;;;5.13;87.41
58662;BME280;44432;49.786;22.760;2024-03-22T06:09:06;99500.38;;;5.15;87.42
58662;BME280;44432;49.786;22.760;2024-03-22T06:11:38;99497.52;;;5.17;87.48
58662;BME280;44432;49.786;22.760;2024-03-22T06:14:13;99499.93;;;5.20;87.49
58662;BME280;44432;49.786;22.760;2024-03-22T06:16:44;99504.76;;;5.22;87.39
58662;BME280;44432;49.786;22.760;2024-03-22T06:19:14;99509.14;;;5.24;87.56
58662;BME280;44432;49.786;22.760;2024-03-22T06:21:44;99506.73;;;5.27;87.53
58662;BME280;44432;49.786;22.760;2024-03-22T06:24:15;99509.39;;;5.31;87.79
58662;BME280;44432;49.786;22.760;2024-03-22T06:26:45;99507.36;;;5.35;87.77
58662;BME280;44432;49.786;22.760;2024-03-22T06:29:17;99512.79;;;5.38;87.44
58662;BME280;44432;49.786;22.760;2024-03-22T06:31:48;99514.55;;;5.39;87.40
58662;BME280;44432;49.786;22.760;2024-03-22T06:34:21;99517.11;;;5.43;87.63
58662;BME280;44432;49.786;22.760;2024-03-22T06:36:52;99520.13;;;5.47;87.52
58662;BME280;44432;49.786;22.760;2024-03-22T06:39:22;99520.98;;;5.50;87.53
58662;BME280;44432;49.786;22.760;2024-03-22T06:41:53;99521.45;;;5.54;87.45
58662;BME280;44432;49.786;22.760;2024-03-22T06:44:23;99519.52;;;5.58;87.53
58662;BME280;44432;49.786;22.760;2024-03-22T06:46:53;99516.15;;;5.64;87.65
58662;BME280;44432;49.786;22.760;2024-03-22T06:49:23;99520.92;;;5.69;87.72
58662;BME280;44432;49.786;22.760;2024-03-22T06:51:54;99521.85;;;5.76;87.78
58662;BME280;44432;49.786;22.760;2024-03-22T06:54:24;99529.11;;;5.83;88.07
58662;BME280;44432;49.786;22.760;2024-03-22T06:56:55;99529.10;;;5.87;87.64
58662;BME280;44432;49.786;22.760;2024-03-22T06:59:25;99527.70;;;5.91;87.79
58662;BME280;44432;49.786;22.760;2024-03-22T07:01:55;99530.04;;;5.93;87.66
58662;BME280;44432;49.786;22.760;2024-03-22T07:04:26;99528.11;;;5.97;87.61
58662;BME280;44432;49.786;22.760;2024-03-22T07:06:56;99535.45;;;6.01;87.94
58662;BME280;44432;49.786;22.760;2024-03-22T07:09:26;99528.73;;;6.05;87.97
58662;BME280;44432;49.786;22.760;2024-03-22T07:11:58;99526.51;;;6.12;87.84
58662;BME280;44432;49.786;22.760;2024-03-22T07:14:29;99524.19;;;6.18;87.73
58662;BME280;44432;49.786;22.760;2024-03-22T07:16:59;99527.52;;;6.22;87.69
58662;BME280;44432;49.786;22.760;2024-03-22T07:19:29;99523.90;;;6.28;88.00
58662;BME280;44432;49.786;22.760;2024-03-22T07:22:00;99521.69;;;6.36;87.32
58662;BME280;44432;49.786;22.760;2024-03-22T07:24:30;99520.35;;;6.46;87.56
58662;BME280;44432;49.786;22.760;2024-03-22T07:27:01;99519.35;;;6.53;87.81
58662;BME280;44432;49.786;22.760;2024-03-22T07:29:31;99512.75;;;6.63;87.51
58662;BME280;44432;49.786;22.760;2024-03-22T07:32:02;99516.98;;;6.74;87.64
58662;BME280;44432;49.786;22.760;2024-03-22T07:34:33;99520.52;;;6.84;87.70
58662;BME280;44432;49.786;22.760;2024-03-22T07:37:03;99523.70;;;6.95;87.62
58662;BME280;44432;49.786;22.760;2024-03-22T07:39:34;99523.66;;;7.04;87.52
58662;BME280;44432;49.786;22.760;2024-03-22T07:42:04;99521.10;;;7.09;87.41
58662;BME280;44432;49.786;22.760;2024-03-22T07:44:34;99517.95;;;7.13;87.50
58662;BME280;44432;49.786;22.760;2024-03-22T07:47:05;99513.80;;;7.17;86.92
58662;BME280;44432;49.786;22.760;2024-03-22T07:49:36;99513.63;;;7.20;86.99
58662;BME280;44432;49.786;22.760;2024-03-22T07:52:07;99508.56;;;7.23;87.01
58662;BME280;44432;49.786;22.760;2024-03-22T07:54:37;99510.83;;;7.26;86.59
58662;BME280;44432;49.786;22.760;2024-03-22T07:57:07;99513.54;;;7.32;86.45
58662;BME280;44432;49.786;22.760;2024-03-22T07:59:39;99510.70;;;7.44;86.70
58662;BME280;44432;49.786;22.760;2024-03-22T08:02:11;99508.91;;;7.54;86.68
58662;BME280;44432;49.786;22.760;2024-03-22T08:04:41;99512.58;;;7.60;86.19
58662;BME280;44432;49.786;22.760;2024-03-22T08:07:12;99508.13;;;7.69;86.49
58662;BME280;44432;49.786;22.760;2024-03-22T08:09:42;99510.67;;;7.78;86.24
58662;BME280;44432;49.786;22.760;2024-03-22T08:12:12;99513.41;;;7.85;86.23
58662;BME280;44432;49.786;22.760;2024-03-22T08:14:42;99507.98;;;7.94;86.15
58662;BME280;44432;49.786;22.760;2024-03-22T08:17:13;99509.88;;;8.01;86.33
58662;BME280;44432;49.786;22.760;2024-03-22T08:19:44;99504.17;;;8.07;85.99
58662;BME280;44432;49.786;22.760;2024-03-22T08:22:14;99503.67;;;8.16;85.86
58662;BME280;44432;49.786;22.760;2024-03-22T08:24:45;99506.55;;;8.27;85.63
58662;BME280;44432;49.786;22.760;2024-03-22T08:27:15;99501.73;;;8.37;85.73
58662;BME280;44432;49.786;22.760;2024-03-22T08:29:45;99505.91;;;8.46;85.20
58662;BME280;44432;49.786;22.760;2024-03-22T08:32:16;99510.15;;;8.51;85.26
58662;BME280;44432;49.786;22.760;2024-03-22T08:34:46;99506.73;;;8.56;84.83
58662;BME280;44432;49.786;22.760;2024-03-22T08:37:17;99508.29;;;8.57;84.50
58662;BME280;44432;49.786;22.760;2024-03-22T08:39:47;99508.68;;;8.57;84.06
58662;BME280;44432;49.786;22.760;2024-03-22T08:42:18;99507.91;;;8.58;84.17
58662;BME280;44432;49.786;22.760;2024-03-22T08:44:48;99505.46;;;8.53;83.81
58662;BME280;44432;49.786;22.760;2024-03-22T08:47:18;99505.34;;;8.51;83.72
58662;BME280;44432;49.786;22.760;2024-03-22T08:49:48;99501.56;;;8.51;83.71
58662;BME280;44432;49.786;22.760;2024-03-22T08:52:19;99499.04;;;8.48;83.52
58662;BME280;44432;49.786;22.760;2024-03-22T08:54:49;99496.13;;;8.49;83.49
58662;BME280;44432;49.786;22.760;2024-03-22T08:57:20;99487.23;;;8.50;83.56
58662;BME280;44432;49.786;22.760;2024-03-22T08:59:51;99488.17;;;8.52;83.72
58662;BME280;44432;49.786;22.760;2024-03-22T09:02:21;99485.52;;;8.54;83.46
58662;BME280;44432;49.786;22.760;2024-03-22T09:04:52;99482.73;;;8.56;83.10
58662;BME280;44432;49.786;22.760;2024-03-22T09:07:23;99483.03;;;8.60;83.18
58662;BME280;44432;49.786;22.760;2024-03-22T09:09:53;99483.82;;;8.63;83.30
58662;BME280;44432;49.786;22.760;2024-03-22T09:12:24;99482.14;;;8.67;83.00
58662;BME280;44432;49.786;22.760;2024-03-22T09:14:54;99482.39;;;8.69;82.87
58662;BME280;44432;49.786;22.760;2024-03-22T09:17:24;99480.62;;;8.72;82.82
58662;BME280;44432;49.786;22.760;2024-03-22T09:19:54;99484.58;;;8.75;82.69
58662;BME280;44432;49.786;22.760;2024-03-22T09:22:25;99487.54;;;8.78;82.57
58662;BME280;44432;49.786;22.760;2024-03-22T09:24:55;99483.10;;;8.81;82.41
58662;BME280;44432;49.786;22.760;2024-03-22T09:27:25;99482.20;;;8.87;82.58
58662;BME280;44432;49.786;22.760;2024-03-22T09:29:55;99485.02;;;8.93;82.39
58662;BME280;44432;49.786;22.760;2024-03-22T09:32:26;99483.16;;;8.96;82.08
58662;BME280;44432;49.786;22.760;2024-03-22T09:34:56;99486.23;;;8.95;81.59
58662;BME280;44432;49.786;22.760;2024-03-22T09:37:27;99488.27;;;8.96;81.67
58662;BME280;44432;49.786;22.760;2024-03-22T09:39:57;99485.66;;;9.04;81.63
58662;BME280;44432;49.786;22.760;2024-03-22T09:42:30;99486.27;;;9.15;81.55
58662;BME280;44432;49.786;22.760;2024-03-22T09:45:04;99487.64;;;9.28;81.29
58662;BME280;44432;49.786;22.760;2024-03-22T09:47:36;99484.09;;;9.44;81.14
58662;BME280;44432;49.786;22.760;2024-03-22T09:50:08;99474.42;;;9.64;81.07
58662;BME280;44432;49.786;22.760;2024-03-22T09:52:39;99474.64;;;9.85;80.94
58662;BME280;44432;49.786;22.760;2024-03-22T09:55:11;99475.57;;;10.08;80.62
58662;BME280;44432;49.786;22.760;2024-03-22T09:57:43;99469.08;;;10.32;80.35
58662;BME280;44432;49.786;22.760;2024-03-22T10:00:17;99469.88;;;10.58;80.08
58662;BME280;44432;49.786;22.760;2024-03-22T10:02:50;99468.70;;;10.83;79.46
58662;BME280;44432;49.786;22.760;2024-03-22T10:05:20;99465.73;;;11.01;78.78
58662;BME280;44432;49.786;22.760;2024-03-22T10:07:50;99465.52;;;11.22;78.79
58662;BME280;44432;49.786;22.760;2024-03-22T10:10:21;99464.61;;;11.42;78.40
58662;BME280;44432;49.786;22.760;2024-03-22T10:12:52;99466.77;;;11.58;77.94
58662;BME280;44432;49.786;22.760;2024-03-22T10:15:24;99463.25;;;11.72;77.37
58662;BME280;44432;49.786;22.760;2024-03-22T10:17:57;99464.89;;;11.79;76.64
58662;BME280;44432;49.786;22.760;2024-03-22T10:20:28;99461.84;;;11.85;76.83
58662;BME280;44432;49.786;22.760;2024-03-22T10:22:59;99461.48;;;11.89;76.14
58662;BME280;44432;49.786;22.760;2024-03-22T10:25:30;99462.84;;;11.87;75.40
58662;BME280;44432;49.786;22.760;2024-03-22T10:28:00;99461.52;;;11.83;75.30
58662;BME280;44432;49.786;22.760;2024-03-22T10:30:31;99454.20;;;11.84;75.59
58662;BME280;44432;49.786;22.760;2024-03-22T10:33:05;99450.55;;;11.91;75.43
58662;BME280;44432;49.786;22.760;2024-03-22T10:35:37;99451.45;;;11.96;74.97
58662;BME280;44432;49.786;22.760;2024-03-22T10:38:08;99447.98;;;12.00;74.92
58662;BME280;44432;49.786;22.760;2024-03-22T10:40:40;99447.37;;;12.06;74.17
58662;BME280;44432;49.786;22.760;2024-03-22T10:43:10;99440.88;;;12.08;74.05
58662;BME280;44432;49.786;22.760;2024-03-22T10:45:41;99440.30;;;12.21;74.62
58662;BME280;44432;49.786;22.760;2024-03-22T10:48:12;99439.73;;;12.37;74.75
58662;BME280;44432;49.786;22.760;2024-03-22T10:50:44;99440.35;;;12.53;74.29
58662;BME280;44432;49.786;22.760;2024-03-22T10:53:18;99437.17;;;12.67;73.63
58662;BME280;44432;49.786;22.760;2024-03-22T10:55:50;99435.20;;;12.81;73.56
58662;BME280;44432;49.786;22.760;2024-03-22T10:58:22;99432.46;;;13.01;73.37
58662;BME280;44432;49.786;22.760;2024-03-22T11:00:54;99431.58;;;13.17;72.77
58662;BME280;44432;49.786;22.760;2024-03-22T11:03:27;99429.89;;;13.31;71.59
58662;BME280;44432;49.786;22.760;2024-03-22T11:05:58;99426.77;;;13.35;70.99
58662;BME280;44432;49.786;22.760;2024-03-22T11:08:29;99419.77;;;13.46;71.36
58662;BME280;44432;49.786;22.760;2024-03-22T11:11:11;99417.05;;;13.62;70.86
58662;BME280;44432;49.786;22.760;2024-03-22T11:13:41;99416.82;;;13.77;70.53
58662;BME280;44432;49.786;22.760;2024-03-22T11:16:12;99414.23;;;13.91;70.28
58662;BME280;44432;49.786;22.760;2024-03-22T11:18:44;99410.11;;;14.03;69.67
58662;BME280;44432;49.786;22.760;2024-03-22T11:21:14;99407.11;;;14.12;69.30
58662;BME280;44432;49.786;22.760;2024-03-22T11:23:47;99402.24;;;14.18;68.47
58662;BME280;44432;49.786;22.760;2024-03-22T11:26:17;99396.86;;;14.09;67.89
58662;BME280;44432;49.786;22.760;2024-03-22T11:28:48;99396.70;;;14.09;68.36
58662;BME280;44432;49.786;22.760;2024-03-22T11:31:19;99390.00;;;14.18;68.68
58662;BME280;44432;49.786;22.760;2024-03-22T11:33:54;99389.00;;;14.32;68.96
58662;BME280;44432;49.786;22.760;2024-03-22T11:36:25;99383.69;;;14.46;68.74
58662;BME280;44432;49.786;22.760;2024-03-22T11:38:55;99379.36;;;14.52;67.53
58662;BME280;44432;49.786;22.760;2024-03-22T11:41:28;99375.14;;;14.48;66.86
58662;BME280;44432;49.786;22.760;2024-03-22T11:44:01;99377.32;;;14.46;66.43
58662;BME280;44432;49.786;22.760;2024-03-22T11:46:31;99372.37;;;14.46;66.75
58662;BME280;44432;49.786;22.760;2024-03-22T11:49:02;99373.29;;;14.49;66.58
58662;BME280;44432;49.786;22.760;2024-03-22T11:51:33;99361.91;;;14.48;66.39
58662;BME280;44432;49.786;22.760;2024-03-22T11:54:04;99355.33;;;14.41;65.75
58662;BME280;44432;49.786;22.760;2024-03-22T11:56:37;99353.73;;;14.34;65.93
58662;BME280;44432;49.786;22.760;2024-03-22T11:59:09;99350.64;;;14.33;66.31
58662;BME280;44432;49.786;22.760;2024-03-22T12:01:39;99345.18;;;14.41;66.60
58662;BME280;44432;49.786;22.760;2024-03-22T12:04:10;99345.68;;;14.50;65.93
58662;BME280;44432;49.786;22.760;2024-03-22T12:06:44;99341.91;;;14.56;65.70
58662;BME280;44432;49.786;22.760;2024-03-22T12:09:15;99338.16;;;14.66;65.44
58662;BME280;44432;49.786;22.760;2024-03-22T12:11:45;99340.48;;;14.71;65.22
58662;BME280;44432;49.786;22.760;2024-03-22T12:14:15;99341.14;;;14.81;65.35
58662;BME280;44432;49.786;22.760;2024-03-22T12:16:46;99337.06;;;14.93;65.00
58662;BME280;44432;49.786;22.760;2024-03-22T12:19:16;99325.77;;;15.01;64.84
58662;BME280;44432;49.786;22.760;2024-03-22T12:21:47;99327.58;;;15.08;64.56
58662;BME280;44432;49.786;22.760;2024-03-22T12:24:17;99326.77;;;15.11;64.07
58662;BME280;44432;49.786;22.760;2024-03-22T12:26:47;99318.48;;;15.11;63.65
58662;BME280;44432;49.786;22.760;2024-03-22T12:29:18;99311.84;;;15.14;63.65
58662;BME280;44432;49.786;22.760;2024-03-22T12:31:48;99304.84;;;15.19;63.58
58662;BME280;44432;49.786;22.760;2024-03-22T12:34:19;99301.38;;;15.28;63.21
58662;BME280;44432;49.786;22.760;2024-03-22T12:36:49;99305.01;;;15.36;62.55
58662;BME280;44432;49.786;22.760;2024-03-22T12:39:20;99302.70;;;15.38;62.56
58662;BME280;44432;49.786;22.760;2024-03-22T12:41:51;99296.93;;;15.48;62.75
58662;BME280;44432;49.786;22.760;2024-03-22T12:44:22;99298.20;;;15.53;62.08
58662;BME280;44432;49.786;22.760;2024-03-22T12:46:52;99297.60;;;15.63;62.25
58662;BME280;44432;49.786;22.760;2024-03-22T12:49:23;99294.54;;;15.74;61.96
58662;BME280;44432;49.786;22.760;2024-03-22T12:51:54;99298.11;;;15.81;61.68
58662;BME280;44432;49.786;22.760;2024-03-22T12:54:25;99296.96;;;15.84;61.06
58662;BME280;44432;49.786;22.760;2024-03-22T12:56:55;99292.92;;;15.84;61.01
58662;BME280;44432;49.786;22.760;2024-03-22T12:59:25;99298.92;;;15.75;60.26
58662;BME280;44432;49.786;22.760;2024-03-22T13:01:56;99291.25;;;15.59;60.20
58662;BME280;44432;49.786;22.760;2024-03-22T13:04:26;99292.75;;;15.53;60.85
58662;BME280;44432;49.786;22.760;2024-03-22T13:06:56;99294.00;;;15.51;60.18
58662;BME280;44432;49.786;22.760;2024-03-22T13:09:27;99287.11;;;15.35;60.06
58662;BME280;44432;49.786;22.760;2024-03-22T13:11:57;99286.18;;;15.16;59.28
58662;BME280;44432;49.786;22.760;2024-03-22T13:14:27;99287.67;;;14.94;59.79